sensor_id;sensor_type;location;lat;lon;timestamp;P1;durP1;ratioP1;P2;durP2;ratioP2
71288;SDS011;59068;52.502;9.860;2023-01-23T00:01:07;9.13;;;7.37;;
71288;SDS011;59068;52.502;9.860;2023-01-23T00:03:34;9.70;;;7.60;;
71288;SDS011;59068;52.502;9.860;2023-01-23T00:06:01;11.30;;;8.00;;
71288;SDS011;59068;52.502;9.860;2023-01-23T00:08:31;10.67;;;7.93;;
71288;SDS011;59068;52.502;9.860;2023-01-23T00:10:57;12.27;;;8.47;;
71288;SDS011;59068;52.502;9.860;2023-01-23T00:13:23;9.80;;;7.97;;
71288;SDS011;59068;52.502;9.860;2023-01-23T00:15:48;10.00;;;7.90;;
71288;SDS011;59068;52.502;9.860;2023-01-23T00:18:14;10.57;;;7.97;;
71288;SDS011;59068;52.502;9.860;2023-01-23T00:20:39;9.17;;;7.80;;
71288;SDS011;59068;52.502;9.860;2023-01-23T00:23:06;9.30;;;7.00;;
71288;SDS011;59068;52.502;9.860;2023-01-23T00:25:32;9.83;;;7.63;;
71288;SDS011;59068;52.502;9.860;2023-01-23T00:27:58;9.67;;;8.13;;
71288;SDS011;59068;52.502;9.860;2023-01-23T00:30:23;11.63;;;8.60;;
71288;SDS011;59068;52.502;9.860;2023-01-23T00:32:48;11.47;;;7.97;;
71288;SDS011;59068;52.502;9.860;2023-01-23T00:35:14;10.60;;;7.97;;
71288;SDS011;59068;52.502;9.860;2023-01-23T00:37:39;12.13;;;7.37;;
71288;SDS011;59068;52.502;9.860;2023-01-23T00:40:05;11.40;;;7.73;;
71288;SDS011;59068;52.502;9.860;2023-01-23T00:42:31;9.80;;;7.77;;
71288;SDS011;59068;52.502;9.860;2023-01-23T00:44:56;10.17;;;7.70;;
71288;SDS011;59068;52.502;9.860;2023-01-23T00:47:21;10.50;;;7.53;;
71288;SDS011;59068;52.502;9.860;2023-01-23T00:49:47;8.07;;;7.27;;
71288;SDS011;59068;52.502;9.860;2023-01-23T00:52:12;8.80;;;7.10;;
71288;SDS011;59068;52.502;9.860;2023-01-23T00:54:37;11.77;;;8.33;;
71288;SDS011;59068;52.502;9.860;2023-01-23T00:57:03;11.57;;;7.83;;
71288;SDS011;59068;52.502;9.860;2023-01-23T00:59:29;10.83;;;8.03;;
71288;SDS011;59068;52.502;9.860;2023-01-23T01:01:54;12.20;;;8.47;;
71288;SDS011;59068;52.502;9.860;2023-01-23T01:04:19;11.37;;;8.70;;
71288;SDS011;59068;52.502;9.860;2023-01-23T01:06:45;12.07;;;8.63;;
71288;SDS011;59068;52.502;9.860;2023-01-23T01:09:10;12.63;;;8.57;;
71288;SDS011;59068;52.502;9.860;2023-01-23T01:11:36;11.73;;;8.47;;
71288;SDS011;59068;52.502;9.860;2023-01-23T01:14:02;10.87;;;8.23;;
71288;SDS011;59068;52.502;9.860;2023-01-23T01:16:27;15.43;;;8.40;;
71288;SDS011;59068;52.502;9.860;2023-01-23T01:18:53;10.63;;;8.93;;
71288;SDS011;59068;52.502;9.860;2023-01-23T01:21:18;12.00;;;8.53;;
71288;SDS011;59068;52.502;9.860;2023-01-23T01:23:44;13.47;;;8.90;;
71288;SDS011;59068;52.502;9.860;2023-01-23T01:26:09;13.27;;;9.07;;
71288;SDS011;59068;52.502;9.860;2023-01-23T01:28:35;12.90;;;9.37;;
71288;SDS011;59068;52.502;9.860;2023-01-23T01:31:05;12.53;;;8.10;;
71288;SDS011;59068;52.502;9.860;2023-01-23T01:33:32;12.50;;;8.80;;
71288;SDS011;59068;52.502;9.860;2023-01-23T01:35:58;12.93;;;9.30;;
71288;SDS011;59068;52.502;9.860;2023-01-23T01:38:24;15.43;;;8.90;;
71288;SDS011;59068;52.502;9.860;2023-01-23T01:40:50;14.13;;;9.07;;
71288;SDS011;59068;52.502;9.860;2023-01-23T01:43:20;14.67;;;8.80;;
71288;SDS011;59068;52.502;9.860;2023-01-23T01:48:41;12.13;;;8.27;;
71288;SDS011;59068;52.502;9.860;2023-01-23T01:51:44;15.60;;;9.33;;
71288;SDS011;59068;52.502;9.860;2023-01-23T01:54:26;13.37;;;8.83;;
71288;SDS011;59068;52.502;9.860;2023-01-23T01:57:11;14.33;;;8.33;;
71288;SDS011;59068;52.502;9.860;2023-01-23T02:02:29;14.47;;;9.03;;
71288;SDS011;59068;52.502;9.860;2023-01-23T02:04:58;13.67;;;8.13;;
71288;SDS011;59068;52.502;9.860;2023-01-23T02:07:27;10.90;;;7.47;;
71288;SDS011;59068;52.502;9.860;2023-01-23T02:09:57;14.90;;;7.47;;
71288;SDS011;59068;52.502;9.860;2023-01-23T02:12:23;11.57;;;7.57;;
71288;SDS011;59068;52.502;9.860;2023-01-23T02:14:50;14.60;;;8.33;;
71288;SDS011;59068;52.502;9.860;2023-01-23T02:17:16;13.30;;;8.40;;
71288;SDS011;59068;52.502;9.860;2023-01-23T02:19:54;12.87;;;7.93;;
71288;SDS011;59068;52.502;9.860;2023-01-23T02:25:07;10.90;;;8.20;;
71288;SDS011;59068;52.502;9.860;2023-01-23T02:27:40;12.80;;;8.50;;
71288;SDS011;59068;52.502;9.860;2023-01-23T02:30:05;11.93;;;8.40;;
71288;SDS011;59068;52.502;9.860;2023-01-23T02:32:32;14.87;;;8.80;;
71288;SDS011;59068;52.502;9.860;2023-01-23T02:34:57;16.77;;;8.60;;
71288;SDS011;59068;52.502;9.860;2023-01-23T02:37:25;14.47;;;8.47;;
71288;SDS011;59068;52.502;9.860;2023-01-23T02:39:53;12.00;;;8.27;;
71288;SDS011;59068;52.502;9.860;2023-01-23T02:42:19;14.97;;;9.17;;
71288;SDS011;59068;52.502;9.860;2023-01-23T02:44:45;12.57;;;8.27;;
71288;SDS011;59068;52.502;9.860;2023-01-23T02:47:10;12.60;;;8.73;;
71288;SDS011;59068;52.502;9.860;2023-01-23T02:49:40;14.50;;;8.40;;
71288;SDS011;59068;52.502;9.860;2023-01-23T02:52:06;15.03;;;9.37;;
71288;SDS011;59068;52.502;9.860;2023-01-23T02:54:33;14.33;;;8.70;;
71288;SDS011;59068;52.502;9.860;2023-01-23T02:56:59;13.27;;;8.40;;
71288;SDS011;59068;52.502;9.860;2023-01-23T02:59:24;17.60;;;9.33;;
71288;SDS011;59068;52.502;9.860;2023-01-23T03:02:08;10.00;;;7.40;;
71288;SDS011;59068;52.502;9.860;2023-01-23T03:04:34;14.07;;;9.40;;
71288;SDS011;59068;52.502;9.860;2023-01-23T03:06:59;15.87;;;8.43;;
71288;SDS011;59068;52.502;9.860;2023-01-23T03:09:25;14.47;;;8.90;;
71288;SDS011;59068;52.502;9.860;2023-01-23T03:11:51;16.60;;;9.40;;
71288;SDS011;59068;52.502;9.860;2023-01-23T03:14:17;14.77;;;8.93;;
71288;SDS011;59068;52.502;9.860;2023-01-23T03:16:44;16.17;;;9.47;;
71288;SDS011;59068;52.502;9.860;2023-01-23T03:19:14;13.47;;;8.57;;
71288;SDS011;59068;52.502;9.860;2023-01-23T03:21:39;15.47;;;8.67;;
71288;SDS011;59068;52.502;9.860;2023-01-23T03:24:08;13.30;;;9.30;;
71288;SDS011;59068;52.502;9.860;2023-01-23T03:26:42;13.27;;;9.33;;
71288;SDS011;59068;52.502;9.860;2023-01-23T03:29:19;15.07;;;8.50;;
71288;SDS011;59068;52.502;9.860;2023-01-23T03:32:05;14.37;;;8.63;;
71288;SDS011;59068;52.502;9.860;2023-01-23T03:34:31;12.93;;;8.93;;
71288;SDS011;59068;52.502;9.860;2023-01-23T03:36:57;13.77;;;8.97;;
71288;SDS011;59068;52.502;9.860;2023-01-23T03:39:22;12.70;;;8.93;;
71288;SDS011;59068;52.502;9.860;2023-01-23T03:42:07;13.03;;;8.50;;
71288;SDS011;59068;52.502;9.860;2023-01-23T03:44:32;13.97;;;8.57;;
71288;SDS011;59068;52.502;9.860;2023-01-23T03:46:57;12.63;;;8.80;;
71288;SDS011;59068;52.502;9.860;2023-01-23T03:49:23;13.17;;;8.83;;
71288;SDS011;59068;52.502;9.860;2023-01-23T03:51:48;18.37;;;9.93;;
71288;SDS011;59068;52.502;9.860;2023-01-23T03:54:14;14.63;;;8.90;;
71288;SDS011;59068;52.502;9.860;2023-01-23T03:56:40;15.60;;;9.00;;
71288;SDS011;59068;52.502;9.860;2023-01-23T03:59:06;11.77;;;8.97;;
71288;SDS011;59068;52.502;9.860;2023-01-23T04:01:31;15.47;;;8.80;;
71288;SDS011;59068;52.502;9.860;2023-01-23T04:03:57;15.87;;;10.03;;
71288;SDS011;59068;52.502;9.860;2023-01-23T04:06:22;12.73;;;8.70;;
71288;SDS011;59068;52.502;9.860;2023-01-23T04:08:47;16.03;;;9.23;;
71288;SDS011;59068;52.502;9.860;2023-01-23T04:11:13;14.13;;;9.67;;
71288;SDS011;59068;52.502;9.860;2023-01-23T04:13:38;15.27;;;9.47;;
71288;SDS011;59068;52.502;9.860;2023-01-23T04:16:04;13.93;;;9.03;;
71288;SDS011;59068;52.502;9.860;2023-01-23T04:18:31;17.73;;;9.73;;
71288;SDS011;59068;52.502;9.860;2023-01-23T04:20:56;16.27;;;9.63;;
71288;SDS011;59068;52.502;9.860;2023-01-23T04:23:22;14.47;;;9.87;;
71288;SDS011;59068;52.502;9.860;2023-01-23T04:25:48;14.17;;;9.27;;
71288;SDS011;59068;52.502;9.860;2023-01-23T04:28:14;14.83;;;8.50;;
71288;SDS011;59068;52.502;9.860;2023-01-23T04:30:40;13.73;;;9.30;;
71288;SDS011;59068;52.502;9.860;2023-01-23T04:33:05;14.57;;;8.70;;
71288;SDS011;59068;52.502;9.860;2023-01-23T04:35:31;15.53;;;9.20;;
71288;SDS011;59068;52.502;9.860;2023-01-23T04:37:56;11.33;;;8.77;;
71288;SDS011;59068;52.502;9.860;2023-01-23T04:40:22;12.70;;;8.77;;
71288;SDS011;59068;52.502;9.860;2023-01-23T04:42:47;13.83;;;8.87;;
71288;SDS011;59068;52.502;9.860;2023-01-23T04:45:13;12.43;;;8.30;;
71288;SDS011;59068;52.502;9.860;2023-01-23T04:47:38;15.30;;;9.30;;
71288;SDS011;59068;52.502;9.860;2023-01-23T04:50:03;13.63;;;8.87;;
71288;SDS011;59068;52.502;9.860;2023-01-23T04:52:29;17.90;;;9.33;;
71288;SDS011;59068;52.502;9.860;2023-01-23T04:54:55;14.57;;;8.13;;
71288;SDS011;59068;52.502;9.860;2023-01-23T04:57:20;12.27;;;8.47;;
71288;SDS011;59068;52.502;9.860;2023-01-23T04:59:48;14.63;;;9.10;;
71288;SDS011;59068;52.502;9.860;2023-01-23T05:02:14;15.80;;;10.10;;
71288;SDS011;59068;52.502;9.860;2023-01-23T05:04:40;18.97;;;10.57;;
71288;SDS011;59068;52.502;9.860;2023-01-23T05:07:05;14.83;;;10.00;;
71288;SDS011;59068;52.502;9.860;2023-01-23T05:09:31;19.27;;;10.13;;
71288;SDS011;59068;52.502;9.860;2023-01-23T05:11:56;14.20;;;9.60;;
71288;SDS011;59068;52.502;9.860;2023-01-23T05:14:22;13.43;;;9.20;;
71288;SDS011;59068;52.502;9.860;2023-01-23T05:16:49;18.97;;;10.63;;
71288;SDS011;59068;52.502;9.860;2023-01-23T05:19:14;49.93;;;23.27;;
71288;SDS011;59068;52.502;9.860;2023-01-23T05:21:40;40.37;;;21.30;;
71288;SDS011;59068;52.502;9.860;2023-01-23T05:24:05;38.20;;;19.07;;
71288;SDS011;59068;52.502;9.860;2023-01-23T05:26:31;33.73;;;18.77;;
71288;SDS011;59068;52.502;9.860;2023-01-23T05:28:57;21.57;;;13.67;;
71288;SDS011;59068;52.502;9.860;2023-01-23T05:31:23;15.77;;;10.73;;
71288;SDS011;59068;52.502;9.860;2023-01-23T05:33:48;15.50;;;10.37;;
71288;SDS011;59068;52.502;9.860;2023-01-23T05:36:13;14.27;;;8.73;;
71288;SDS011;59068;52.502;9.860;2023-01-23T05:38:39;13.23;;;9.70;;
71288;SDS011;59068;52.502;9.860;2023-01-23T05:41:04;15.00;;;10.27;;
71288;SDS011;59068;52.502;9.860;2023-01-23T05:43:30;15.17;;;9.47;;
71288;SDS011;59068;52.502;9.860;2023-01-23T05:45:57;17.63;;;10.07;;
71288;SDS011;59068;52.502;9.860;2023-01-23T05:48:24;16.07;;;9.67;;
71288;SDS011;59068;52.502;9.860;2023-01-23T05:50:49;15.10;;;10.53;;
71288;SDS011;59068;52.502;9.860;2023-01-23T05:53:15;16.77;;;10.63;;
71288;SDS011;59068;52.502;9.860;2023-01-23T05:55:40;17.77;;;10.97;;
71288;SDS011;59068;52.502;9.860;2023-01-23T05:58:06;17.33;;;11.40;;
71288;SDS011;59068;52.502;9.860;2023-01-23T06:00:31;17.50;;;12.00;;
71288;SDS011;59068;52.502;9.860;2023-01-23T06:02:57;19.70;;;12.50;;
71288;SDS011;59068;52.502;9.860;2023-01-23T06:05:23;22.63;;;12.43;;
71288;SDS011;59068;52.502;9.860;2023-01-23T06:07:48;20.07;;;11.83;;
71288;SDS011;59068;52.502;9.860;2023-01-23T06:10:14;21.27;;;12.27;;
71288;SDS011;59068;52.502;9.860;2023-01-23T06:12:39;23.73;;;11.80;;
71288;SDS011;59068;52.502;9.860;2023-01-23T06:15:05;20.40;;;12.83;;
71288;SDS011;59068;52.502;9.860;2023-01-23T06:17:31;19.53;;;12.17;;
71288;SDS011;59068;52.502;9.860;2023-01-23T06:19:56;19.37;;;11.43;;
71288;SDS011;59068;52.502;9.860;2023-01-23T06:22:23;19.20;;;11.47;;
71288;SDS011;59068;52.502;9.860;2023-01-23T06:24:48;20.07;;;11.87;;
71288;SDS011;59068;52.502;9.860;2023-01-23T06:27:14;20.17;;;12.27;;
71288;SDS011;59068;52.502;9.860;2023-01-23T06:29:40;19.43;;;11.43;;
71288;SDS011;59068;52.502;9.860;2023-01-23T06:32:08;20.80;;;12.00;;
71288;SDS011;59068;52.502;9.860;2023-01-23T06:34:37;20.27;;;11.70;;
71288;SDS011;59068;52.502;9.860;2023-01-23T06:37:02;19.43;;;11.23;;
71288;SDS011;59068;52.502;9.860;2023-01-23T06:39:28;21.73;;;12.27;;
71288;SDS011;59068;52.502;9.860;2023-01-23T06:41:58;18.43;;;11.70;;
71288;SDS011;59068;52.502;9.860;2023-01-23T06:44:24;21.40;;;12.07;;
71288;SDS011;59068;52.502;9.860;2023-01-23T06:46:51;19.57;;;11.43;;
71288;SDS011;59068;52.502;9.860;2023-01-23T06:49:17;19.40;;;11.70;;
71288;SDS011;59068;52.502;9.860;2023-01-23T06:51:42;22.10;;;12.07;;
71288;SDS011;59068;52.502;9.860;2023-01-23T06:54:08;21.60;;;11.90;;
71288;SDS011;59068;52.502;9.860;2023-01-23T06:56:34;20.23;;;11.73;;
71288;SDS011;59068;52.502;9.860;2023-01-23T06:58:59;19.33;;;12.13;;
71288;SDS011;59068;52.502;9.860;2023-01-23T07:01:25;17.77;;;10.67;;
71288;SDS011;59068;52.502;9.860;2023-01-23T07:03:51;17.20;;;11.93;;
71288;SDS011;59068;52.502;9.860;2023-01-23T07:06:16;19.17;;;11.43;;
71288;SDS011;59068;52.502;9.860;2023-01-23T07:08:42;19.17;;;11.87;;
71288;SDS011;59068;52.502;9.860;2023-01-23T07:11:11;19.23;;;11.67;;
71288;SDS011;59068;52.502;9.860;2023-01-23T07:13:37;18.13;;;11.40;;
71288;SDS011;59068;52.502;9.860;2023-01-23T07:16:03;17.47;;;11.40;;
71288;SDS011;59068;52.502;9.860;2023-01-23T07:18:29;17.50;;;11.40;;
71288;SDS011;59068;52.502;9.860;2023-01-23T07:20:54;14.87;;;10.83;;
71288;SDS011;59068;52.502;9.860;2023-01-23T07:23:20;18.20;;;11.40;;
71288;SDS011;59068;52.502;9.860;2023-01-23T07:25:46;17.73;;;11.53;;
71288;SDS011;59068;52.502;9.860;2023-01-23T07:28:12;15.83;;;11.67;;
71288;SDS011;59068;52.502;9.860;2023-01-23T07:30:38;18.67;;;11.47;;
71288;SDS011;59068;52.502;9.860;2023-01-23T07:33:03;15.97;;;11.57;;
71288;SDS011;59068;52.502;9.860;2023-01-23T07:35:29;18.17;;;11.37;;
71288;SDS011;59068;52.502;9.860;2023-01-23T07:37:55;16.40;;;11.67;;
71288;SDS011;59068;52.502;9.860;2023-01-23T07:40:20;18.27;;;12.10;;
71288;SDS011;59068;52.502;9.860;2023-01-23T07:42:46;17.80;;;11.17;;
71288;SDS011;59068;52.502;9.860;2023-01-23T07:45:11;17.03;;;12.03;;
71288;SDS011;59068;52.502;9.860;2023-01-23T07:47:37;17.03;;;12.50;;
71288;SDS011;59068;52.502;9.860;2023-01-23T07:50:14;18.33;;;11.27;;
71288;SDS011;59068;52.502;9.860;2023-01-23T07:52:40;16.40;;;11.07;;
71288;SDS011;59068;52.502;9.860;2023-01-23T07:55:06;19.30;;;11.07;;
71288;SDS011;59068;52.502;9.860;2023-01-23T07:57:31;16.77;;;11.07;;
71288;SDS011;59068;52.502;9.860;2023-01-23T07:59:58;21.53;;;12.73;;
71288;SDS011;59068;52.502;9.860;2023-01-23T08:02:23;19.10;;;12.10;;
71288;SDS011;59068;52.502;9.860;2023-01-23T08:04:48;16.37;;;11.57;;
71288;SDS011;59068;52.502;9.860;2023-01-23T08:07:14;16.63;;;11.40;;
71288;SDS011;59068;52.502;9.860;2023-01-23T08:09:39;14.20;;;10.93;;
71288;SDS011;59068;52.502;9.860;2023-01-23T08:12:05;16.83;;;11.73;;
71288;SDS011;59068;52.502;9.860;2023-01-23T08:14:30;17.23;;;10.90;;
71288;SDS011;59068;52.502;9.860;2023-01-23T08:16:56;13.73;;;10.97;;
71288;SDS011;59068;52.502;9.860;2023-01-23T08:19:21;15.43;;;10.93;;
71288;SDS011;59068;52.502;9.860;2023-01-23T08:21:49;17.70;;;11.63;;
71288;SDS011;59068;52.502;9.860;2023-01-23T08:24:14;18.63;;;12.27;;
71288;SDS011;59068;52.502;9.860;2023-01-23T08:26:40;19.17;;;11.97;;
71288;SDS011;59068;52.502;9.860;2023-01-23T08:29:06;17.50;;;11.47;;
71288;SDS011;59068;52.502;9.860;2023-01-23T08:31:31;16.43;;;11.60;;
71288;SDS011;59068;52.502;9.860;2023-01-23T08:33:57;18.10;;;12.20;;
71288;SDS011;59068;52.502;9.860;2023-01-23T08:36:22;17.70;;;11.43;;
71288;SDS011;59068;52.502;9.860;2023-01-23T08:38:48;19.00;;;12.33;;
71288;SDS011;59068;52.502;9.860;2023-01-23T08:41:13;19.53;;;12.43;;
71288;SDS011;59068;52.502;9.860;2023-01-23T08:43:38;17.97;;;12.23;;
71288;SDS011;59068;52.502;9.860;2023-01-23T08:46:07;17.80;;;11.47;;
71288;SDS011;59068;52.502;9.860;2023-01-23T08:48:33;19.77;;;13.03;;
71288;SDS011;59068;52.502;9.860;2023-01-23T08:51:00;22.07;;;13.97;;
71288;SDS011;59068;52.502;9.860;2023-01-23T08:53:31;22.23;;;13.87;;
71288;SDS011;59068;52.502;9.860;2023-01-23T08:56:01;19.27;;;12.67;;
71288;SDS011;59068;52.502;9.860;2023-01-23T08:58:29;19.30;;;12.97;;
71288;SDS011;59068;52.502;9.860;2023-01-23T09:00:54;15.50;;;11.07;;
71288;SDS011;59068;52.502;9.860;2023-01-23T09:03:20;18.20;;;12.47;;
71288;SDS011;59068;52.502;9.860;2023-01-23T09:05:45;15.77;;;12.20;;
71288;SDS011;59068;52.502;9.860;2023-01-23T09:08:11;18.00;;;12.23;;
71288;SDS011;59068;52.502;9.860;2023-01-23T09:10:36;17.63;;;12.80;;
71288;SDS011;59068;52.502;9.860;2023-01-23T09:13:02;19.47;;;12.97;;
71288;SDS011;59068;52.502;9.860;2023-01-23T09:15:28;19.07;;;12.27;;
71288;SDS011;59068;52.502;9.860;2023-01-23T09:17:53;19.30;;;12.17;;
71288;SDS011;59068;52.502;9.860;2023-01-23T09:20:19;17.57;;;12.10;;
71288;SDS011;59068;52.502;9.860;2023-01-23T09:22:44;19.80;;;12.37;;
71288;SDS011;59068;52.502;9.860;2023-01-23T09:25:10;17.93;;;12.07;;
71288;SDS011;59068;52.502;9.860;2023-01-23T09:27:36;17.83;;;12.13;;
71288;SDS011;59068;52.502;9.860;2023-01-23T09:30:01;25.40;;;15.27;;
71288;SDS011;59068;52.502;9.860;2023-01-23T09:32:27;17.87;;;12.70;;
71288;SDS011;59068;52.502;9.860;2023-01-23T09:34:52;19.03;;;12.80;;
71288;SDS011;59068;52.502;9.860;2023-01-23T09:37:19;19.10;;;12.60;;
71288;SDS011;59068;52.502;9.860;2023-01-23T09:39:44;22.80;;;12.70;;
71288;SDS011;59068;52.502;9.860;2023-01-23T09:42:20;17.20;;;12.33;;
71288;SDS011;59068;52.502;9.860;2023-01-23T09:44:52;18.93;;;13.30;;
71288;SDS011;59068;52.502;9.860;2023-01-23T09:50:24;15.57;;;12.20;;
71288;SDS011;59068;52.502;9.860;2023-01-23T09:52:57;17.57;;;11.70;;
71288;SDS011;59068;52.502;9.860;2023-01-23T09:58:03;18.83;;;12.53;;
71288;SDS011;59068;52.502;9.860;2023-01-23T10:00:32;18.37;;;12.20;;
71288;SDS011;59068;52.502;9.860;2023-01-23T10:03:02;20.80;;;13.40;;
71288;SDS011;59068;52.502;9.860;2023-01-23T10:05:31;19.80;;;13.03;;
71288;SDS011;59068;52.502;9.860;2023-01-23T10:08:12;19.30;;;12.80;;
71288;SDS011;59068;52.502;9.860;2023-01-23T10:13:13;22.63;;;13.53;;
71288;SDS011;59068;52.502;9.860;2023-01-23T10:21:15;19.10;;;12.47;;
71288;SDS011;59068;52.502;9.860;2023-01-23T10:24:03;21.27;;;12.90;;
71288;SDS011;59068;52.502;9.860;2023-01-23T10:26:48;18.57;;;13.57;;
71288;SDS011;59068;52.502;9.860;2023-01-23T10:31:55;20.30;;;13.23;;
71288;SDS011;59068;52.502;9.860;2023-01-23T10:38:34;22.17;;;12.63;;
71288;SDS011;59068;52.502;9.860;2023-01-23T10:40:41;17.50;;;11.73;;
71288;SDS011;59068;52.502;9.860;2023-01-23T10:43:25;20.43;;;13.50;;
71288;SDS011;59068;52.502;9.860;2023-01-23T10:45:50;20.00;;;12.50;;
71288;SDS011;59068;52.502;9.860;2023-01-23T10:50:57;22.50;;;13.53;;
71288;SDS011;59068;52.502;9.860;2023-01-23T10:53:24;20.23;;;12.70;;
71288;SDS011;59068;52.502;9.860;2023-01-23T10:55:50;20.13;;;13.13;;
71288;SDS011;59068;52.502;9.860;2023-01-23T10:58:36;24.07;;;14.23;;
71288;SDS011;59068;52.502;9.860;2023-01-23T11:01:02;23.90;;;14.63;;
71288;SDS011;59068;52.502;9.860;2023-01-23T11:03:32;21.87;;;14.10;;
71288;SDS011;59068;52.502;9.860;2023-01-23T11:06:03;22.30;;;14.33;;
71288;SDS011;59068;52.502;9.860;2023-01-23T11:08:39;21.40;;;14.17;;
71288;SDS011;59068;52.502;9.860;2023-01-23T11:11:25;21.50;;;14.10;;
71288;SDS011;59068;52.502;9.860;2023-01-23T11:14:05;21.50;;;14.20;;
71288;SDS011;59068;52.502;9.860;2023-01-23T11:16:32;24.63;;;14.97;;
71288;SDS011;59068;52.502;9.860;2023-01-23T11:19:03;20.20;;;13.30;;
71288;SDS011;59068;52.502;9.860;2023-01-23T11:22:21;23.70;;;14.00;;
71288;SDS011;59068;52.502;9.860;2023-01-23T11:24:27;23.53;;;14.30;;
71288;SDS011;59068;52.502;9.860;2023-01-23T11:27:03;21.70;;;14.67;;
71288;SDS011;59068;52.502;9.860;2023-01-23T11:32:27;26.63;;;14.53;;
71288;SDS011;59068;52.502;9.860;2023-01-23T11:35:01;24.00;;;14.77;;
71288;SDS011;59068;52.502;9.860;2023-01-23T11:37:35;23.10;;;14.30;;
71288;SDS011;59068;52.502;9.860;2023-01-23T11:40:04;23.33;;;14.00;;
71288;SDS011;59068;52.502;9.860;2023-01-23T11:42:39;22.37;;;14.27;;
71288;SDS011;59068;52.502;9.860;2023-01-23T11:50:49;20.27;;;13.30;;
71288;SDS011;59068;52.502;9.860;2023-01-23T11:53:18;21.93;;;14.03;;
71288;SDS011;59068;52.502;9.860;2023-01-23T12:01:07;22.20;;;14.13;;
71288;SDS011;59068;52.502;9.860;2023-01-23T12:09:13;19.37;;;12.37;;
71288;SDS011;59068;52.502;9.860;2023-01-23T12:14:59;18.17;;;12.40;;
71288;SDS011;59068;52.502;9.860;2023-01-23T12:20:18;18.13;;;12.60;;
71288;SDS011;59068;52.502;9.860;2023-01-23T12:25:37;21.50;;;13.20;;
71288;SDS011;59068;52.502;9.860;2023-01-23T12:41:42;21.60;;;13.80;;
71288;SDS011;59068;52.502;9.860;2023-01-23T12:44:23;21.30;;;13.97;;
71288;SDS011;59068;52.502;9.860;2023-01-23T12:46:58;22.17;;;14.47;;
71288;SDS011;59068;52.502;9.860;2023-01-23T12:49:43;25.10;;;15.20;;
71288;SDS011;59068;52.502;9.860;2023-01-23T12:55:01;25.97;;;16.30;;
71288;SDS011;59068;52.502;9.860;2023-01-23T12:57:29;24.17;;;15.87;;
71288;SDS011;59068;52.502;9.860;2023-01-23T13:00:08;26.73;;;15.10;;
71288;SDS011;59068;52.502;9.860;2023-01-23T13:03:13;22.87;;;14.70;;
71288;SDS011;59068;52.502;9.860;2023-01-23T13:11:34;27.07;;;15.13;;
71288;SDS011;59068;52.502;9.860;2023-01-23T13:16:48;22.17;;;14.83;;
71288;SDS011;59068;52.502;9.860;2023-01-23T13:19:20;22.83;;;15.13;;
71288;SDS011;59068;52.502;9.860;2023-01-23T13:22:29;25.00;;;15.60;;
71288;SDS011;59068;52.502;9.860;2023-01-23T13:25:10;22.00;;;14.53;;
71288;SDS011;59068;52.502;9.860;2023-01-23T13:27:39;23.30;;;14.53;;
71288;SDS011;59068;52.502;9.860;2023-01-23T13:32:45;20.33;;;14.27;;
71288;SDS011;59068;52.502;9.860;2023-01-23T13:46:09;20.40;;;13.37;;
71288;SDS011;59068;52.502;9.860;2023-01-23T13:48:53;20.33;;;14.00;;
71288;SDS011;59068;52.502;9.860;2023-01-23T13:51:42;19.33;;;13.37;;
71288;SDS011;59068;52.502;9.860;2023-01-23T13:54:09;20.27;;;14.17;;
71288;SDS011;59068;52.502;9.860;2023-01-23T13:56:55;18.30;;;13.23;;
71288;SDS011;59068;52.502;9.860;2023-01-23T14:02:14;19.33;;;13.53;;
71288;SDS011;59068;52.502;9.860;2023-01-23T14:05:04;20.30;;;13.77;;
71288;SDS011;59068;52.502;9.860;2023-01-23T14:07:39;22.30;;;15.13;;
71288;SDS011;59068;52.502;9.860;2023-01-23T14:15:31;20.30;;;13.83;;
71288;SDS011;59068;52.502;9.860;2023-01-23T14:18:32;11.87;;;8.00;;
71288;SDS011;59068;52.502;9.860;2023-01-23T14:21:20;39.03;;;19.90;;
71288;SDS011;59068;52.502;9.860;2023-01-23T14:23:49;20.90;;;14.50;;
71288;SDS011;59068;52.502;9.860;2023-01-23T14:26:16;19.50;;;13.60;;
71288;SDS011;59068;52.502;9.860;2023-01-23T14:28:56;17.80;;;12.83;;
71288;SDS011;59068;52.502;9.860;2023-01-23T14:31:33;19.53;;;12.23;;
71288;SDS011;59068;52.502;9.860;2023-01-23T14:34:01;19.77;;;13.27;;
71288;SDS011;59068;52.502;9.860;2023-01-23T14:36:28;18.47;;;13.10;;
71288;SDS011;59068;52.502;9.860;2023-01-23T14:38:54;17.30;;;12.33;;
71288;SDS011;59068;52.502;9.860;2023-01-23T14:41:20;21.17;;;13.87;;
71288;SDS011;59068;52.502;9.860;2023-01-23T14:43:49;18.67;;;12.67;;
71288;SDS011;59068;52.502;9.860;2023-01-23T14:46:18;18.67;;;12.13;;
71288;SDS011;59068;52.502;9.860;2023-01-23T14:48:48;19.97;;;13.77;;
71288;SDS011;59068;52.502;9.860;2023-01-23T14:51:20;20.03;;;13.67;;
71288;SDS011;59068;52.502;9.860;2023-01-23T14:53:57;19.50;;;13.40;;
71288;SDS011;59068;52.502;9.860;2023-01-23T14:56:24;16.50;;;12.30;;
71288;SDS011;59068;52.502;9.860;2023-01-23T14:58:51;18.63;;;13.07;;
71288;SDS011;59068;52.502;9.860;2023-01-23T15:01:19;20.03;;;13.30;;
71288;SDS011;59068;52.502;9.860;2023-01-23T15:03:53;20.70;;;13.33;;
71288;SDS011;59068;52.502;9.860;2023-01-23T15:06:20;19.63;;;14.13;;
71288;SDS011;59068;52.502;9.860;2023-01-23T15:08:46;19.27;;;14.20;;
71288;SDS011;59068;52.502;9.860;2023-01-23T15:11:13;18.20;;;13.50;;
71288;SDS011;59068;52.502;9.860;2023-01-23T15:13:43;19.50;;;10.87;;
71288;SDS011;59068;52.502;9.860;2023-01-23T15:16:21;32.00;;;19.00;;
71288;SDS011;59068;52.502;9.860;2023-01-23T15:21:23;21.60;;;14.17;;
71288;SDS011;59068;52.502;9.860;2023-01-23T15:23:58;19.97;;;13.90;;
71288;SDS011;59068;52.502;9.860;2023-01-23T15:27:17;17.90;;;13.60;;
71288;SDS011;59068;52.502;9.860;2023-01-23T15:29:31;19.23;;;13.57;;
71288;SDS011;59068;52.502;9.860;2023-01-23T15:31:57;19.50;;;13.93;;
71288;SDS011;59068;52.502;9.860;2023-01-23T15:39:16;18.87;;;13.17;;
71288;SDS011;59068;52.502;9.860;2023-01-23T15:44:27;19.30;;;13.60;;
71288;SDS011;59068;52.502;9.860;2023-01-23T15:46:54;19.83;;;13.13;;
71288;SDS011;59068;52.502;9.860;2023-01-23T15:49:20;22.23;;;14.13;;
71288;SDS011;59068;52.502;9.860;2023-01-23T15:51:45;19.17;;;13.37;;
71288;SDS011;59068;52.502;9.860;2023-01-23T15:54:14;19.77;;;13.80;;
71288;SDS011;59068;52.502;9.860;2023-01-23T15:56:44;34.80;;;19.57;;
71288;SDS011;59068;52.502;9.860;2023-01-23T15:59:13;41.27;;;22.57;;
71288;SDS011;59068;52.502;9.860;2023-01-23T16:01:39;39.73;;;24.13;;
71288;SDS011;59068;52.502;9.860;2023-01-23T16:04:05;34.53;;;20.70;;
71288;SDS011;59068;52.502;9.860;2023-01-23T16:06:31;25.27;;;16.73;;
71288;SDS011;59068;52.502;9.860;2023-01-23T16:08:59;21.00;;;14.57;;
71288;SDS011;59068;52.502;9.860;2023-01-23T16:11:26;19.97;;;14.77;;
71288;SDS011;59068;52.502;9.860;2023-01-23T16:13:52;20.97;;;14.03;;
71288;SDS011;59068;52.502;9.860;2023-01-23T16:16:17;17.33;;;12.93;;
71288;SDS011;59068;52.502;9.860;2023-01-23T16:18:43;18.43;;;12.13;;
71288;SDS011;59068;52.502;9.860;2023-01-23T16:21:15;16.73;;;12.43;;
71288;SDS011;59068;52.502;9.860;2023-01-23T16:23:41;18.33;;;13.10;;
71288;SDS011;59068;52.502;9.860;2023-01-23T16:26:20;15.47;;;12.13;;
71288;SDS011;59068;52.502;9.860;2023-01-23T16:28:46;16.83;;;12.37;;
71288;SDS011;59068;52.502;9.860;2023-01-23T16:31:12;16.53;;;12.27;;